sensor_id;sensor_type;location;lat;lon;timestamp;P1;durP1;ratioP1;P2;durP2;ratioP2
13797;SDS011;6970;51.340;3.240;2023-11-22T00:01:49;15.23;;;9.70;;
13797;SDS011;6970;51.340;3.240;2023-11-22T00:04:18;12.53;;;9.10;;
13797;SDS011;6970;51.340;3.240;2023-11-22T00:09:17;14.40;;;10.87;;
13797;SDS011;6970;51.340;3.240;2023-11-22T00:11:50;14.37;;;9.33;;
13797;SDS011;6970;51.340;3.240;2023-11-22T00:16:50;17.77;;;10.10;;
13797;SDS011;6970;51.340;3.240;2023-11-22T00:19:26;16.70;;;10.37;;
13797;SDS011;6970;51.340;3.240;2023-11-22T00:21:52;12.63;;;9.77;;
13797;SDS011;6970;51.340;3.240;2023-11-22T00:24:22;15.23;;;10.90;;
13797;SDS011;6970;51.340;3.240;2023-11-22T00:26:51;14.90;;;10.70;;
13797;SDS011;6970;51.340;3.240;2023-11-22T00:29:21;13.57;;;11.10;;
13797;SDS011;6970;51.340;3.240;2023-11-22T00:31:49;13.77;;;10.57;;
13797;SDS011;6970;51.340;3.240;2023-11-22T00:34:19;15.20;;;11.30;;
13797;SDS011;6970;51.340;3.240;2023-11-22T00:36:50;15.67;;;12.30;;
13797;SDS011;6970;51.340;3.240;2023-11-22T00:39:17;15.93;;;12.93;;
13797;SDS011;6970;51.340;3.240;2023-11-22T00:41:47;15.73;;;12.57;;
13797;SDS011;6970;51.340;3.240;2023-11-22T00:44:15;15.37;;;12.10;;
13797;SDS011;6970;51.340;3.240;2023-11-22T00:46:46;16.77;;;12.13;;
13797;SDS011;6970;51.340;3.240;2023-11-22T00:49:13;18.53;;;13.33;;
13797;SDS011;6970;51.340;3.240;2023-11-22T00:54:11;19.50;;;13.00;;
13797;SDS011;6970;51.340;3.240;2023-11-22T00:56:38;15.87;;;12.47;;
13797;SDS011;6970;51.340;3.240;2023-11-22T00:59:05;16.30;;;13.23;;
13797;SDS011;6970;51.340;3.240;2023-11-22T01:01:33;20.87;;;13.47;;
13797;SDS011;6970;51.340;3.240;2023-11-22T01:04:00;17.03;;;13.17;;
13797;SDS011;6970;51.340;3.240;2023-11-22T01:08:59;18.27;;;12.63;;
13797;SDS011;6970;51.340;3.240;2023-11-22T01:11:28;16.33;;;12.83;;
13797;SDS011;6970;51.340;3.240;2023-11-22T01:16:28;14.30;;;11.67;;
13797;SDS011;6970;51.340;3.240;2023-11-22T01:18:56;18.03;;;11.67;;
13797;SDS011;6970;51.340;3.240;2023-11-22T01:23:53;15.30;;;10.87;;
13797;SDS011;6970;51.340;3.240;2023-11-22T01:26:21;12.73;;;10.37;;
13797;SDS011;6970;51.340;3.240;2023-11-22T01:28:49;13.00;;;10.13;;
13797;SDS011;6970;51.340;3.240;2023-11-22T01:31:19;15.57;;;10.67;;
13797;SDS011;6970;51.340;3.240;2023-11-22T01:33:49;13.13;;;10.07;;
13797;SDS011;6970;51.340;3.240;2023-11-22T01:36:17;12.53;;;10.30;;
13797;SDS011;6970;51.340;3.240;2023-11-22T01:38:48;13.20;;;10.10;;
13797;SDS011;6970;51.340;3.240;2023-11-22T01:41:21;13.00;;;10.20;;
13797;SDS011;6970;51.340;3.240;2023-11-22T01:43:50;11.53;;;9.33;;
13797;SDS011;6970;51.340;3.240;2023-11-22T01:46:27;12.27;;;9.63;;
13797;SDS011;6970;51.340;3.240;2023-11-22T01:48:54;10.90;;;9.80;;
13797;SDS011;6970;51.340;3.240;2023-11-22T01:51:22;12.53;;;9.50;;
13797;SDS011;6970;51.340;3.240;2023-11-22T01:53:51;9.43;;;8.40;;
13797;SDS011;6970;51.340;3.240;2023-11-22T01:56:21;9.67;;;8.67;;
13797;SDS011;6970;51.340;3.240;2023-11-22T01:58:54;11.40;;;9.90;;
13797;SDS011;6970;51.340;3.240;2023-11-22T02:01:24;9.57;;;8.57;;
13797;SDS011;6970;51.340;3.240;2023-11-22T02:03:52;12.10;;;8.87;;
13797;SDS011;6970;51.340;3.240;2023-11-22T02:06:23;11.80;;;9.57;;
13797;SDS011;6970;51.340;3.240;2023-11-22T02:08:53;11.17;;;8.97;;
13797;SDS011;6970;51.340;3.240;2023-11-22T02:13:57;13.27;;;9.57;;
13797;SDS011;6970;51.340;3.240;2023-11-22T02:16:30;9.43;;;8.53;;
13797;SDS011;6970;51.340;3.240;2023-11-22T02:18:57;9.17;;;7.67;;
13797;SDS011;6970;51.340;3.240;2023-11-22T02:21:25;9.00;;;8.10;;
13797;SDS011;6970;51.340;3.240;2023-11-22T02:23:54;9.87;;;8.50;;
13797;SDS011;6970;51.340;3.240;2023-11-22T02:28:55;10.03;;;8.40;;
13797;SDS011;6970;51.340;3.240;2023-11-22T02:31:25;9.80;;;8.60;;
13797;SDS011;6970;51.340;3.240;2023-11-22T02:36:27;11.63;;;9.33;;
13797;SDS011;6970;51.340;3.240;2023-11-22T02:38:57;13.20;;;9.47;;
13797;SDS011;6970;51.340;3.240;2023-11-22T02:41:30;11.67;;;9.33;;
13797;SDS011;6970;51.340;3.240;2023-11-22T02:44:00;10.03;;;8.90;;
13797;SDS011;6970;51.340;3.240;2023-11-22T02:46:30;12.27;;;9.00;;
13797;SDS011;6970;51.340;3.240;2023-11-22T02:48:58;12.57;;;9.43;;
13797;SDS011;6970;51.340;3.240;2023-11-22T02:51:25;13.10;;;9.53;;
13797;SDS011;6970;51.340;3.240;2023-11-22T02:56:26;11.43;;;9.80;;
13797;SDS011;6970;51.340;3.240;2023-11-22T02:58:59;9.43;;;8.53;;
13797;SDS011;6970;51.340;3.240;2023-11-22T03:01:33;11.43;;;9.40;;
13797;SDS011;6970;51.340;3.240;2023-11-22T03:06:31;10.70;;;8.93;;
13797;SDS011;6970;51.340;3.240;2023-11-22T03:09:01;9.63;;;8.23;;
13797;SDS011;6970;51.340;3.240;2023-11-22T03:11:31;10.90;;;8.23;;
13797;SDS011;6970;51.340;3.240;2023-11-22T03:14:04;9.83;;;8.40;;
13797;SDS011;6970;51.340;3.240;2023-11-22T03:19:11;10.43;;;8.97;;
13797;SDS011;6970;51.340;3.240;2023-11-22T03:21:42;10.07;;;8.57;;
13797;SDS011;6970;51.340;3.240;2023-11-22T03:26:43;9.67;;;8.73;;
13797;SDS011;6970;51.340;3.240;2023-11-22T03:29:14;9.60;;;8.70;;
13797;SDS011;6970;51.340;3.240;2023-11-22T03:31:48;9.73;;;8.83;;
13797;SDS011;6970;51.340;3.240;2023-11-22T03:36:50;14.27;;;9.93;;
13797;SDS011;6970;51.340;3.240;2023-11-22T03:39:20;10.63;;;9.53;;
13797;SDS011;6970;51.340;3.240;2023-11-22T03:41:48;10.33;;;8.90;;
13797;SDS011;6970;51.340;3.240;2023-11-22T03:44:17;10.67;;;9.40;;
13797;SDS011;6970;51.340;3.240;2023-11-22T03:49:14;10.97;;;9.20;;
13797;SDS011;6970;51.340;3.240;2023-11-22T03:51:47;8.90;;;8.00;;
13797;SDS011;6970;51.340;3.240;2023-11-22T03:54:17;8.80;;;7.93;;
13797;SDS011;6970;51.340;3.240;2023-11-22T03:56:46;10.27;;;8.70;;
13797;SDS011;6970;51.340;3.240;2023-11-22T03:59:13;12.20;;;9.23;;
13797;SDS011;6970;51.340;3.240;2023-11-22T04:01:42;11.83;;;10.23;;
13797;SDS011;6970;51.340;3.240;2023-11-22T04:04:11;12.40;;;10.23;;
13797;SDS011;6970;51.340;3.240;2023-11-22T04:06:39;14.60;;;9.97;;
13797;SDS011;6970;51.340;3.240;2023-11-22T04:11:39;11.77;;;9.90;;
13797;SDS011;6970;51.340;3.240;2023-11-22T04:16:37;11.33;;;10.10;;
13797;SDS011;6970;51.340;3.240;2023-11-22T04:19:10;16.63;;;10.90;;
13797;SDS011;6970;51.340;3.240;2023-11-22T04:24:11;12.40;;;11.07;;
13797;SDS011;6970;51.340;3.240;2023-11-22T04:26:40;11.93;;;10.10;;
13797;SDS011;6970;51.340;3.240;2023-11-22T04:29:09;11.87;;;10.27;;
13797;SDS011;6970;51.340;3.240;2023-11-22T04:34:09;14.47;;;10.73;;
13797;SDS011;6970;51.340;3.240;2023-11-22T04:36:36;12.87;;;11.53;;
13797;SDS011;6970;51.340;3.240;2023-11-22T04:41:38;11.77;;;10.23;;
13797;SDS011;6970;51.340;3.240;2023-11-22T04:44:09;13.57;;;10.80;;
13797;SDS011;6970;51.340;3.240;2023-11-22T04:46:36;13.43;;;10.93;;
13797;SDS011;6970;51.340;3.240;2023-11-22T04:49:04;15.70;;;11.23;;
13797;SDS011;6970;51.340;3.240;2023-11-22T04:54:02;12.10;;;10.80;;
13797;SDS011;6970;51.340;3.240;2023-11-22T04:59:00;12.03;;;10.00;;
13797;SDS011;6970;51.340;3.240;2023-11-22T05:01:33;16.83;;;12.37;;
13797;SDS011;6970;51.340;3.240;2023-11-22T05:04:01;13.43;;;11.90;;
13797;SDS011;6970;51.340;3.240;2023-11-22T05:06:30;12.77;;;11.20;;
13797;SDS011;6970;51.340;3.240;2023-11-22T05:09:15;15.70;;;12.60;;
13797;SDS011;6970;51.340;3.240;2023-11-22T05:11:45;15.43;;;12.07;;
13797;SDS011;6970;51.340;3.240;2023-11-22T05:14:15;15.57;;;11.73;;
13797;SDS011;6970;51.340;3.240;2023-11-22T05:16:45;13.80;;;12.27;;
13797;SDS011;6970;51.340;3.240;2023-11-22T05:19:13;19.63;;;13.70;;
13797;SDS011;6970;51.340;3.240;2023-11-22T05:21:43;16.17;;;12.63;;
13797;SDS011;6970;51.340;3.240;2023-11-22T05:24:11;14.93;;;12.93;;
13797;SDS011;6970;51.340;3.240;2023-11-22T05:26:39;16.03;;;13.10;;
13797;SDS011;6970;51.340;3.240;2023-11-22T05:34:08;17.40;;;13.57;;
13797;SDS011;6970;51.340;3.240;2023-11-22T05:36:36;14.97;;;12.53;;
13797;SDS011;6970;51.340;3.240;2023-11-22T05:39:04;17.90;;;13.97;;
13797;SDS011;6970;51.340;3.240;2023-11-22T05:41:31;15.83;;;12.50;;
13797;SDS011;6970;51.340;3.240;2023-11-22T05:44:01;17.13;;;13.57;;
13797;SDS011;6970;51.340;3.240;2023-11-22T05:46:31;18.10;;;13.60;;
13797;SDS011;6970;51.340;3.240;2023-11-22T05:49:02;16.53;;;13.40;;
13797;SDS011;6970;51.340;3.240;2023-11-22T05:51:31;16.93;;;13.20;;
13797;SDS011;6970;51.340;3.240;2023-11-22T05:54:01;14.93;;;13.23;;
13797;SDS011;6970;51.340;3.240;2023-11-22T05:59:00;15.60;;;13.27;;
13797;SDS011;6970;51.340;3.240;2023-11-22T06:06:29;16.87;;;13.40;;
13797;SDS011;6970;51.340;3.240;2023-11-22T06:08:58;21.07;;;14.10;;
13797;SDS011;6970;51.340;3.240;2023-11-22T06:11:26;20.30;;;14.90;;
13797;SDS011;6970;51.340;3.240;2023-11-22T06:16:25;21.87;;;14.93;;
13797;SDS011;6970;51.340;3.240;2023-11-22T06:18:54;18.30;;;14.60;;
13797;SDS011;6970;51.340;3.240;2023-11-22T06:21:22;19.77;;;14.53;;
13797;SDS011;6970;51.340;3.240;2023-11-22T06:23:54;20.17;;;15.13;;
13797;SDS011;6970;51.340;3.240;2023-11-22T06:28:55;21.10;;;15.33;;
13797;SDS011;6970;51.340;3.240;2023-11-22T06:33:55;24.30;;;15.33;;
13797;SDS011;6970;51.340;3.240;2023-11-22T06:36:23;17.90;;;14.73;;
13797;SDS011;6970;51.340;3.240;2023-11-22T06:38:53;20.30;;;14.53;;
13797;SDS011;6970;51.340;3.240;2023-11-22T06:41:23;18.47;;;14.57;;
13797;SDS011;6970;51.340;3.240;2023-11-22T06:43:50;18.57;;;13.63;;
13797;SDS011;6970;51.340;3.240;2023-11-22T06:46:19;19.43;;;14.40;;
13797;SDS011;6970;51.340;3.240;2023-11-22T06:51:20;23.70;;;14.93;;
13797;SDS011;6970;51.340;3.240;2023-11-22T06:56:23;19.33;;;14.70;;
13797;SDS011;6970;51.340;3.240;2023-11-22T06:58:52;18.40;;;13.83;;
13797;SDS011;6970;51.340;3.240;2023-11-22T07:03:54;20.57;;;15.10;;
13797;SDS011;6970;51.340;3.240;2023-11-22T07:06:21;20.17;;;15.87;;
13797;SDS011;6970;51.340;3.240;2023-11-22T07:11:21;23.00;;;15.43;;
13797;SDS011;6970;51.340;3.240;2023-11-22T07:16:23;22.57;;;15.13;;
13797;SDS011;6970;51.340;3.240;2023-11-22T07:18:52;19.30;;;14.97;;
13797;SDS011;6970;51.340;3.240;2023-11-22T07:21:19;24.53;;;14.27;;
13797;SDS011;6970;51.340;3.240;2023-11-22T07:23:48;19.20;;;13.97;;
13797;SDS011;6970;51.340;3.240;2023-11-22T07:26:20;19.97;;;14.63;;
13797;SDS011;6970;51.340;3.240;2023-11-22T07:31:24;20.30;;;14.47;;
13797;SDS011;6970;51.340;3.240;2023-11-22T07:33:51;17.80;;;13.93;;
13797;SDS011;6970;51.340;3.240;2023-11-22T07:36:20;21.63;;;14.70;;
13797;SDS011;6970;51.340;3.240;2023-11-22T07:38:49;19.27;;;14.47;;
13797;SDS011;6970;51.340;3.240;2023-11-22T07:41:21;22.53;;;15.23;;
13797;SDS011;6970;51.340;3.240;2023-11-22T07:43:48;21.17;;;15.13;;
13797;SDS011;6970;51.340;3.240;2023-11-22T07:46:16;18.07;;;13.43;;
13797;SDS011;6970;51.340;3.240;2023-11-22T07:48:46;17.37;;;13.87;;
13797;SDS011;6970;51.340;3.240;2023-11-22T07:51:15;16.60;;;13.80;;
13797;SDS011;6970;51.340;3.240;2023-11-22T07:53:46;19.63;;;14.07;;
13797;SDS011;6970;51.340;3.240;2023-11-22T07:56:14;22.97;;;15.43;;
13797;SDS011;6970;51.340;3.240;2023-11-22T07:58:47;20.50;;;14.80;;
13797;SDS011;6970;51.340;3.240;2023-11-22T08:01:15;17.43;;;13.50;;
13797;SDS011;6970;51.340;3.240;2023-11-22T08:03:44;20.27;;;13.87;;
13797;SDS011;6970;51.340;3.240;2023-11-22T08:06:15;19.77;;;14.20;;
13797;SDS011;6970;51.340;3.240;2023-11-22T08:08:45;20.57;;;15.33;;
13797;SDS011;6970;51.340;3.240;2023-11-22T08:11:16;19.00;;;15.47;;
13797;SDS011;6970;51.340;3.240;2023-11-22T08:13:46;17.70;;;15.27;;
13797;SDS011;6970;51.340;3.240;2023-11-22T08:16:17;18.47;;;15.00;;
13797;SDS011;6970;51.340;3.240;2023-11-22T08:18:47;18.10;;;14.47;;
13797;SDS011;6970;51.340;3.240;2023-11-22T08:21:15;17.90;;;15.37;;
13797;SDS011;6970;51.340;3.240;2023-11-22T08:23:42;17.43;;;14.43;;
13797;SDS011;6970;51.340;3.240;2023-11-22T08:26:10;17.83;;;14.77;;
13797;SDS011;6970;51.340;3.240;2023-11-22T08:28:38;16.60;;;14.23;;
13797;SDS011;6970;51.340;3.240;2023-11-22T08:31:06;15.17;;;13.47;;
13797;SDS011;6970;51.340;3.240;2023-11-22T08:33:39;16.43;;;14.77;;
13797;SDS011;6970;51.340;3.240;2023-11-22T08:36:07;21.77;;;15.53;;
13797;SDS011;6970;51.340;3.240;2023-11-22T08:38:37;19.10;;;14.30;;
13797;SDS011;6970;51.340;3.240;2023-11-22T08:41:11;18.07;;;16.07;;
13797;SDS011;6970;51.340;3.240;2023-11-22T08:43:41;18.23;;;15.63;;
13797;SDS011;6970;51.340;3.240;2023-11-22T08:46:10;19.37;;;15.07;;
13797;SDS011;6970;51.340;3.240;2023-11-22T08:48:43;16.93;;;15.23;;
13797;SDS011;6970;51.340;3.240;2023-11-22T08:51:10;17.13;;;15.23;;
13797;SDS011;6970;51.340;3.240;2023-11-22T08:53:38;17.90;;;15.80;;
13797;SDS011;6970;51.340;3.240;2023-11-22T08:56:05;16.97;;;15.20;;
13797;SDS011;6970;51.340;3.240;2023-11-22T08:58:39;18.70;;;16.20;;
13797;SDS011;6970;51.340;3.240;2023-11-22T09:01:09;18.83;;;16.90;;
13797;SDS011;6970;51.340;3.240;2023-11-22T09:03:37;16.97;;;15.17;;
13797;SDS011;6970;51.340;3.240;2023-11-22T09:06:05;17.47;;;15.70;;
13797;SDS011;6970;51.340;3.240;2023-11-22T09:08:34;17.90;;;16.00;;
13797;SDS011;6970;51.340;3.240;2023-11-22T09:11:02;18.07;;;16.20;;
13797;SDS011;6970;51.340;3.240;2023-11-22T09:13:39;18.60;;;16.60;;
13797;SDS011;6970;51.340;3.240;2023-11-22T09:16:06;18.37;;;16.57;;
13797;SDS011;6970;51.340;3.240;2023-11-22T09:18:34;18.27;;;16.27;;
13797;SDS011;6970;51.340;3.240;2023-11-22T09:21:05;17.70;;;15.90;;
13797;SDS011;6970;51.340;3.240;2023-11-22T09:23:36;18.83;;;15.80;;
13797;SDS011;6970;51.340;3.240;2023-11-22T09:26:09;18.60;;;15.87;;
13797;SDS011;6970;51.340;3.240;2023-11-22T09:28:39;16.47;;;14.53;;
13797;SDS011;6970;51.340;3.240;2023-11-22T09:31:10;18.80;;;16.27;;
13797;SDS011;6970;51.340;3.240;2023-11-22T09:33:39;18.53;;;15.07;;
13797;SDS011;6970;51.340;3.240;2023-11-22T09:36:08;22.37;;;17.00;;
13797;SDS011;6970;51.340;3.240;2023-11-22T09:38:38;18.77;;;15.93;;
13797;SDS011;6970;51.340;3.240;2023-11-22T09:41:08;17.07;;;15.27;;
13797;SDS011;6970;51.340;3.240;2023-11-22T09:43:42;19.07;;;16.03;;
13797;SDS011;6970;51.340;3.240;2023-11-22T09:46:11;17.77;;;15.30;;
13797;SDS011;6970;51.340;3.240;2023-11-22T09:48:41;21.10;;;16.90;;
13797;SDS011;6970;51.340;3.240;2023-11-22T09:51:44;22.97;;;17.13;;
13797;SDS011;6970;51.340;3.240;2023-11-22T09:54:06;22.50;;;16.50;;
13797;SDS011;6970;51.340;3.240;2023-11-22T09:56:38;22.30;;;17.53;;
13797;SDS011;6970;51.340;3.240;2023-11-22T09:59:06;21.23;;;16.80;;
13797;SDS011;6970;51.340;3.240;2023-11-22T10:01:37;20.47;;;16.13;;
13797;SDS011;6970;51.340;3.240;2023-11-22T10:04:07;21.50;;;16.27;;
13797;SDS011;6970;51.340;3.240;2023-11-22T10:06:34;23.13;;;16.47;;
13797;SDS011;6970;51.340;3.240;2023-11-22T10:09:04;18.80;;;16.00;;
13797;SDS011;6970;51.340;3.240;2023-11-22T10:11:37;20.77;;;15.50;;
13797;SDS011;6970;51.340;3.240;2023-11-22T10:14:22;21.27;;;15.90;;
13797;SDS011;6970;51.340;3.240;2023-11-22T10:17:01;19.47;;;15.77;;
13797;SDS011;6970;51.340;3.240;2023-11-22T10:22:05;17.63;;;15.43;;
13797;SDS011;6970;51.340;3.240;2023-11-22T10:24:37;19.97;;;16.10;;
13797;SDS011;6970;51.340;3.240;2023-11-22T10:27:10;20.00;;;16.33;;
13797;SDS011;6970;51.340;3.240;2023-11-22T10:29:38;20.70;;;16.93;;
13797;SDS011;6970;51.340;3.240;2023-11-22T10:32:08;18.77;;;16.73;;
13797;SDS011;6970;51.340;3.240;2023-11-22T10:34:35;18.67;;;16.77;;
13797;SDS011;6970;51.340;3.240;2023-11-22T10:37:03;17.90;;;16.00;;
13797;SDS011;6970;51.340;3.240;2023-11-22T10:39:32;18.47;;;16.57;;
13797;SDS011;6970;51.340;3.240;2023-11-22T10:41:59;17.97;;;16.13;;
13797;SDS011;6970;51.340;3.240;2023-11-22T10:47:02;18.23;;;16.33;;
13797;SDS011;6970;51.340;3.240;2023-11-22T10:49:32;17.63;;;15.33;;
13797;SDS011;6970;51.340;3.240;2023-11-22T10:54:35;18.30;;;16.27;;
13797;SDS011;6970;51.340;3.240;2023-11-22T10:57:07;19.60;;;15.70;;
13797;SDS011;6970;51.340;3.240;2023-11-22T10:59:38;17.43;;;15.50;;
13797;SDS011;6970;51.340;3.240;2023-11-22T11:02:11;16.87;;;15.10;;
13797;SDS011;6970;51.340;3.240;2023-11-22T11:09:56;20.80;;;16.60;;
13797;SDS011;6970;51.340;3.240;2023-11-22T11:12:39;17.03;;;15.00;;
13797;SDS011;6970;51.340;3.240;2023-11-22T11:15:07;19.40;;;15.33;;
13797;SDS011;6970;51.340;3.240;2023-11-22T11:25:20;18.40;;;15.63;;
13797;SDS011;6970;51.340;3.240;2023-11-22T11:27:57;18.70;;;14.37;;
13797;SDS011;6970;51.340;3.240;2023-11-22T11:33:27;16.00;;;13.27;;
13797;SDS011;6970;51.340;3.240;2023-11-22T11:36:01;18.50;;;14.07;;
13797;SDS011;6970;51.340;3.240;2023-11-22T11:38:36;18.17;;;14.80;;
13797;SDS011;6970;51.340;3.240;2023-11-22T11:41:10;16.23;;;13.07;;
13797;SDS011;6970;51.340;3.240;2023-11-22T11:43:45;15.40;;;13.07;;
13797;SDS011;6970;51.340;3.240;2023-11-22T11:46:19;12.73;;;11.53;;
13797;SDS011;6970;51.340;3.240;2023-11-22T11:48:50;13.33;;;11.93;;
13797;SDS011;6970;51.340;3.240;2023-11-22T11:51:21;11.70;;;10.50;;
13797;SDS011;6970;51.340;3.240;2023-11-22T11:53:57;11.50;;;10.30;;
13797;SDS011;6970;51.340;3.240;2023-11-22T11:56:27;11.97;;;10.87;;
13797;SDS011;6970;51.340;3.240;2023-11-22T11:58:57;14.57;;;10.93;;
13797;SDS011;6970;51.340;3.240;2023-11-22T12:01:30;11.97;;;10.80;;
13797;SDS011;6970;51.340;3.240;2023-11-22T12:04:07;10.63;;;9.73;;
13797;SDS011;6970;51.340;3.240;2023-11-22T12:09:06;10.33;;;9.23;;
13797;SDS011;6970;51.340;3.240;2023-11-22T12:11:34;11.80;;;10.23;;
13797;SDS011;6970;51.340;3.240;2023-11-22T12:14:03;13.23;;;10.47;;
13797;SDS011;6970;51.340;3.240;2023-11-22T12:16:32;12.67;;;11.17;;
13797;SDS011;6970;51.340;3.240;2023-11-22T12:19:01;11.13;;;10.00;;
13797;SDS011;6970;51.340;3.240;2023-11-22T12:21:33;10.90;;;9.80;;
13797;SDS011;6970;51.340;3.240;2023-11-22T12:24:00;11.63;;;10.43;;
13797;SDS011;6970;51.340;3.240;2023-11-22T12:26:29;12.07;;;10.97;;
13797;SDS011;6970;51.340;3.240;2023-11-22T12:29:01;12.03;;;10.83;;
13797;SDS011;6970;51.340;3.240;2023-11-22T12:34:03;12.20;;;10.17;;
13797;SDS011;6970;51.340;3.240;2023-11-22T12:36:34;12.23;;;11.03;;
13797;SDS011;6970;51.340;3.240;2023-11-22T12:39:06;13.27;;;11.10;;
13797;SDS011;6970;51.340;3.240;2023-11-22T12:41:35;10.43;;;9.40;;
13797;SDS011;6970;51.340;3.240;2023-11-22T12:44:05;11.07;;;10.07;;
13797;SDS011;6970;51.340;3.240;2023-11-22T12:49:29;12.30;;;10.70;;
13797;SDS011;6970;51.340;3.240;2023-11-22T12:52:01;13.33;;;10.93;;
13797;SDS011;6970;51.340;3.240;2023-11-22T12:54:29;12.33;;;11.07;;
13797;SDS011;6970;51.340;3.240;2023-11-22T12:56:59;11.90;;;10.70;;
13797;SDS011;6970;51.340;3.240;2023-11-22T12:59:30;12.67;;;11.47;;
13797;SDS011;6970;51.340;3.240;2023-11-22T13:01:58;12.50;;;10.73;;
13797;SDS011;6970;51.340;3.240;2023-11-22T13:04:31;11.60;;;10.37;;
13797;SDS011;6970;51.340;3.240;2023-11-22T13:07:00;11.83;;;10.37;;
13797;SDS011;6970;51.340;3.240;2023-11-22T13:11:59;12.33;;;11.10;;
13797;SDS011;6970;51.340;3.240;2023-11-22T13:17:03;11.47;;;10.27;;
13797;SDS011;6970;51.340;3.240;2023-11-22T13:19:35;12.10;;;10.33;;
13797;SDS011;6970;51.340;3.240;2023-11-22T13:22:03;13.57;;;11.30;;
13797;SDS011;6970;51.340;3.240;2023-11-22T13:24:35;11.63;;;9.70;;
13797;SDS011;6970;51.340;3.240;2023-11-22T13:27:02;12.63;;;10.50;;
13797;SDS011;6970;51.340;3.240;2023-11-22T13:29:31;12.47;;;10.30;;
13797;SDS011;6970;51.340;3.240;2023-11-22T13:32:00;10.73;;;8.83;;
13797;SDS011;6970;51.340;3.240;2023-11-22T13:34:30;10.10;;;8.57;;
13797;SDS011;6970;51.340;3.240;2023-11-22T13:36:58;9.77;;;8.83;;
13797;SDS011;6970;51.340;3.240;2023-11-22T13:39:28;9.77;;;8.77;;
13797;SDS011;6970;51.340;3.240;2023-11-22T13:42:02;10.60;;;8.93;;
13797;SDS011;6970;51.340;3.240;2023-11-22T13:46:59;10.63;;;9.63;;
13797;SDS011;6970;51.340;3.240;2023-11-22T13:49:27;10.97;;;8.87;;
13797;SDS011;6970;51.340;3.240;2023-11-22T13:51:54;12.07;;;9.27;;
13797;SDS011;6970;51.340;3.240;2023-11-22T13:56:54;10.70;;;9.60;;
13797;SDS011;6970;51.340;3.240;2023-11-22T13:59:24;10.20;;;9.00;;
13797;SDS011;6970;51.340;3.240;2023-11-22T14:04:23;9.57;;;8.67;;
13797;SDS011;6970;51.340;3.240;2023-11-22T14:09:22;9.90;;;8.53;;
13797;SDS011;6970;51.340;3.240;2023-11-22T14:14:22;10.43;;;9.00;;
13797;SDS011;6970;51.340;3.240;2023-11-22T14:16:50;9.03;;;8.10;;
13797;SDS011;6970;51.340;3.240;2023-11-22T14:19:19;8.97;;;8.17;;
13797;SDS011;6970;51.340;3.240;2023-11-22T14:21:55;8.60;;;7.77;;
13797;SDS011;6970;51.340;3.240;2023-11-22T14:24:26;9.73;;;8.30;;
13797;SDS011;6970;51.340;3.240;2023-11-22T14:26:56;8.87;;;7.97;;
13797;SDS011;6970;51.340;3.240;2023-11-22T14:29:30;10.90;;;8.70;;
13797;SDS011;6970;51.340;3.240;2023-11-22T14:32:00;8.37;;;7.57;;
13797;SDS011;6970;51.340;3.240;2023-11-22T14:34:28;8.80;;;8.00;;
13797;SDS011;6970;51.340;3.240;2023-11-22T14:36:56;10.60;;;7.93;;
13797;SDS011;6970;51.340;3.240;2023-11-22T14:39:24;8.17;;;7.37;;
13797;SDS011;6970;51.340;3.240;2023-11-22T14:41:54;9.10;;;8.20;;
13797;SDS011;6970;51.340;3.240;2023-11-22T14:44:23;8.53;;;7.60;;
13797;SDS011;6970;51.340;3.240;2023-11-22T14:46:56;9.63;;;7.60;;
13797;SDS011;6970;51.340;3.240;2023-11-22T14:49:25;8.73;;;7.93;;
13797;SDS011;6970;51.340;3.240;2023-11-22T14:51:54;8.40;;;7.60;;
13797;SDS011;6970;51.340;3.240;2023-11-22T14:54:21;9.93;;;9.00;;
13797;SDS011;6970;51.340;3.240;2023-11-22T14:56:54;9.03;;;8.13;;
13797;SDS011;6970;51.340;3.240;2023-11-22T15:01:58;9.00;;;7.70;;
13797;SDS011;6970;51.340;3.240;2023-11-22T15:04:28;9.63;;;8.63;;
13797;SDS011;6970;51.340;3.240;2023-11-22T15:09:26;11.13;;;8.47;;
13797;SDS011;6970;51.340;3.240;2023-11-22T15:11:53;8.40;;;7.60;;
13797;SDS011;6970;51.340;3.240;2023-11-22T15:14:21;12.63;;;9.27;;
13797;SDS011;6970;51.340;3.240;2023-11-22T15:16:49;9.30;;;8.30;;
13797;SDS011;6970;51.340;3.240;2023-11-22T15:19:16;9.67;;;8.60;;
13797;SDS011;6970;51.340;3.240;2023-11-22T15:24:18;10.60;;;9.03;;
13797;SDS011;6970;51.340;3.240;2023-11-22T15:26:51;10.43;;;8.83;;
13797;SDS011;6970;51.340;3.240;2023-11-22T15:29:22;11.80;;;8.50;;
13797;SDS011;6970;51.340;3.240;2023-11-22T15:31:49;11.23;;;8.50;;
13797;SDS011;6970;51.340;3.240;2023-11-22T15:34:19;11.90;;;8.63;;
13797;SDS011;6970;51.340;3.240;2023-11-22T15:36:46;9.07;;;8.17;;
13797;SDS011;6970;51.340;3.240;2023-11-22T15:39:14;8.83;;;7.77;;
13797;SDS011;6970;51.340;3.240;2023-11-22T15:41:53;8.67;;;7.70;;
13797;SDS011;6970;51.340;3.240;2023-11-22T15:44:21;10.37;;;7.97;;
13797;SDS011;6970;51.340;3.240;2023-11-22T15:46:49;9.03;;;8.23;;
13797;SDS011;6970;51.340;3.240;2023-11-22T15:49:19;8.50;;;7.70;;
13797;SDS011;6970;51.340;3.240;2023-11-22T15:51:47;9.67;;;7.37;;
13797;SDS011;6970;51.340;3.240;2023-11-22T15:54:14;8.27;;;7.47;;
13797;SDS011;6970;51.340;3.240;2023-11-22T15:56:49;8.33;;;7.43;;
13797;SDS011;6970;51.340;3.240;2023-11-22T16:01:50;9.10;;;7.43;;
13797;SDS011;6970;51.340;3.240;2023-11-22T16:04:17;8.23;;;7.23;;
13797;SDS011;6970;51.340;3.240;2023-11-22T16:06:44;9.77;;;7.23;;
13797;SDS011;6970;51.340;3.240;2023-11-22T16:11:48;8.03;;;7.23;;
13797;SDS011;6970;51.340;3.240;2023-11-22T16:14:15;8.23;;;7.23;;
13797;SDS011;6970;51.340;3.240;2023-11-22T16:16:45;9.57;;;7.43;;
13797;SDS011;6970;51.340;3.240;2023-11-22T16:19:14;7.73;;;7.03;;
13797;SDS011;6970;51.340;3.240;2023-11-22T16:24:16;8.43;;;7.57;;
13797;SDS011;6970;51.340;3.240;2023-11-22T16:26:43;7.70;;;6.87;;
13797;SDS011;6970;51.340;3.240;2023-11-22T16:31:45;8.00;;;7.30;;
13797;SDS011;6970;51.340;3.240;2023-11-22T16:34:13;8.00;;;7.20;;
13797;SDS011;6970;51.340;3.240;2023-11-22T16:36:44;8.07;;;7.37;;
13797;SDS011;6970;51.340;3.240;2023-11-22T16:39:17;8.63;;;7.83;;
13797;SDS011;6970;51.340;3.240;2023-11-22T16:41:58;11.23;;;7.70;;
13797;SDS011;6970;51.340;3.240;2023-11-22T16:46:58;9.37;;;7.63;;
13797;SDS011;6970;51.340;3.240;2023-11-22T16:49:28;8.43;;;7.50;;
13797;SDS011;6970;51.340;3.240;2023-11-22T16:54:28;11.97;;;9.40;;
13797;SDS011;6970;51.340;3.240;2023-11-22T16:59:29;9.17;;;8.23;;
13797;SDS011;6970;51.340;3.240;2023-11-22T17:01:57;8.23;;;7.33;;
13797;SDS011;6970;51.340;3.240;2023-11-22T17:04:25;9.90;;;7.73;;
13797;SDS011;6970;51.340;3.240;2023-11-22T17:06:54;9.67;;;6.97;;
13797;SDS011;6970;51.340;3.240;2023-11-22T17:09:21;10.70;;;6.97;;
13797;SDS011;6970;51.340;3.240;2023-11-22T17:11:51;12.33;;;7.87;;
13797;SDS011;6970;51.340;3.240;2023-11-22T17:16:51;8.50;;;7.70;;
13797;SDS011;6970;51.340;3.240;2023-11-22T17:19:18;8.43;;;7.60;;
13797;SDS011;6970;51.340;3.240;2023-11-22T17:21:47;7.50;;;6.77;;
13797;SDS011;6970;51.340;3.240;2023-11-22T17:26:46;8.67;;;7.77;;
13797;SDS011;6970;51.340;3.240;2023-11-22T17:29:15;9.97;;;8.27;;
13797;SDS011;6970;51.340;3.240;2023-11-22T17:31:42;8.43;;;7.63;;
13797;SDS011;6970;51.340;3.240;2023-11-22T17:34:09;8.37;;;7.57;;
13797;SDS011;6970;51.340;3.240;2023-11-22T17:36:36;9.33;;;8.30;;
13797;SDS011;6970;51.340;3.240;2023-11-22T17:39:03;8.53;;;7.60;;
13797;SDS011;6970;51.340;3.240;2023-11-22T17:41:30;8.70;;;7.47;;
13797;SDS011;6970;51.340;3.240;2023-11-22T17:43:59;10.20;;;7.60;;
13797;SDS011;6970;51.340;3.240;2023-11-22T17:46:27;8.53;;;7.50;;
13797;SDS011;6970;51.340;3.240;2023-11-22T17:51:29;8.73;;;7.67;;